Time;durP1;ratioP1;P1;durP2;ratioP2;P2;SDS_P1;SDS_P2;PMS_P1;PMS_P2;Temp;Humidity;BMP_temperature;BMP_pressure;BME280_temperature;BME280_humidity;BME280_pressure;Samples;Min_cycle;Max_cycle;Signal;HPM_P1;HPM_P2
2023/12/04 00:00:19;;;;;;;27.83;11.77;;;;;;;-1.91;100.00;101080.28;5206132;28;20033;-76
2023/12/04 00:02:49;;;;;;;27.60;11.55;;;;;;;-1.75;100.00;101074.66;5202192;28;20099;-76
2023/12/04 00:05:20;;;;;;;27.65;11.35;;;;;;;-1.95;100.00;101075.91;5206811;28;20084;-75
2023/12/04 00:07:50;;;;;;;28.42;11.68;;;;;;;-1.75;100.00;101072.94;5202072;28;20021;-75
2023/12/04 00:10:21;;;;;;;27.10;11.43;;;;;;;-2.08;100.00;101063.66;5201960;28;20108;-75
2023/12/04 00:12:51;;;;;;;29.63;11.80;;;;;;;-1.88;100.00;101059.84;5185842;28;20125;-74
2023/12/04 00:15:21;;;;;;;26.10;11.73;;;;;;;-2.04;100.00;101064.56;5203029;28;20025;-75
2023/12/04 00:17:51;;;;;;;28.10;12.05;;;;;;;-1.84;100.00;101056.50;5202591;28;20025;-75
2023/12/04 00:20:22;;;;;;;29.52;12.10;;;;;;;-1.99;100.00;101050.22;5197662;28;20033;-76
2023/12/04 00:22:52;;;;;;;29.85;12.13;;;;;;;-1.89;100.00;101052.13;5201774;28;20116;-75
2023/12/04 00:25:22;;;;;;;29.13;11.45;;;;;;;-1.95;100.00;101052.00;5204490;28;20453;-75
2023/12/04 00:27:53;;;;;;;27.05;11.77;;;;;;;-2.13;100.00;101051.59;5206580;28;20495;-76
2023/12/04 00:30:23;;;;;;;29.58;12.13;;;;;;;-2.07;100.00;101046.59;5205830;28;20025;-76
2023/12/04 00:32:53;;;;;;;26.17;11.52;;;;;;;-1.92;100.00;101037.56;5203675;28;20021;-73
2023/12/04 00:35:24;;;;;;;27.15;11.75;;;;;;;-1.90;100.00;101041.03;5201918;28;20021;-72
2023/12/04 00:37:54;;;;;;;29.60;11.77;;;;;;;-1.98;100.00;101037.41;5202304;28;20025;-74
2023/12/04 00:40:24;;;;;;;27.13;11.60;;;;;;;-2.07;100.00;101029.56;5205226;28;20025;-72
2023/12/04 00:42:55;;;;;;;24.55;10.52;;;;;;;-1.99;100.00;101024.59;5206826;28;20086;-75
2023/12/04 00:45:25;;;;;;;26.65;11.10;;;;;;;-2.09;100.00;101028.66;5207203;28;20028;-76
2023/12/04 00:47:55;;;;;;;28.67;11.20;;;;;;;-2.19;100.00;101016.47;5205094;28;20041;-76
2023/12/04 00:50:25;;;;;;;28.35;11.52;;;;;;;-2.05;100.00;101020.22;5230499;23;20127;-73
2023/12/04 00:52:56;;;;;;;26.67;10.95;;;;;;;-2.00;100.00;101022.88;5203529;28;20033;-74
2023/12/04 00:55:26;;;;;;;31.45;11.57;;;;;;;-1.97;100.00;101016.09;5207429;28;20465;-73
2023/12/04 00:57:56;;;;;;;27.88;11.35;;;;;;;-2.02;100.00;101015.16;5204784;28;20042;-73
2023/12/04 01:00:27;;;;;;;24.60;10.70;;;;;;;-2.12;100.00;101013.25;5208582;28;20020;-74
2023/12/04 01:02:57;;;;;;;27.00;11.73;;;;;;;-1.84;100.00;101019.81;5195685;28;20471;-73
2023/12/04 01:05:27;;;;;;;27.20;11.38;;;;;;;-2.24;100.00;101002.72;5210661;28;20024;-74
2023/12/04 01:07:58;;;;;;;27.02;12.05;;;;;;;-2.12;100.00;100997.00;5202575;28;20091;-73
2023/12/04 01:10:28;;;;;;;25.33;11.38;;;;;;;-2.01;100.00;100986.16;5203034;28;20025;-74
2023/12/04 01:12:59;;;;;;;26.48;11.13;;;;;;;-2.04;100.00;100988.66;5202516;28;20029;-74
2023/12/04 01:15:29;;;;;;;28.55;11.18;;;;;;;-1.97;100.00;100985.38;5203619;28;20587;-74
2023/12/04 01:18:00;;;;;;;26.80;11.10;;;;;;;-1.98;100.00;100986.22;5202057;28;20033;-72
2023/12/04 01:20:33;;;;;;;27.75;11.15;;;;;;;-1.90;100.00;100984.69;5204351;28;20037;-72
2023/12/04 01:23:03;;;;;;;29.63;12.18;;;;;;;-1.93;100.00;100979.50;5200985;28;20572;-73
2023/12/04 01:25:33;;;;;;;27.25;10.98;;;;;;;-2.01;100.00;100978.47;5203571;28;20040;-72
2023/12/04 01:28:04;;;;;;;25.85;11.07;;;;;;;-2.00;100.00;100977.63;5203558;28;20029;-73
2023/12/04 01:30:34;;;;;;;24.45;10.60;;;;;;;-2.08;100.00;100958.72;5203155;28;20486;-72
2023/12/04 01:33:04;;;;;;;30.13;10.93;;;;;;;-1.99;100.00;100958.03;5202484;28;20032;-73
2023/12/04 01:35:34;;;;;;;25.15;10.27;;;;;;;-1.78;100.00;100959.34;5203210;28;20037;-73
2023/12/04 01:38:05;;;;;;;27.00;10.95;;;;;;;-1.72;100.00;100959.44;5204308;28;20553;-72
2023/12/04 01:40:35;;;;;;;22.45;10.20;;;;;;;-1.71;100.00;100958.63;5203853;28;20494;-72
2023/12/04 01:43:06;;;;;;;21.05;10.00;;;;;;;-1.60;100.00;100960.53;5203168;28;20025;-72
2023/12/04 01:45:36;;;;;;;21.60;9.38;;;;;;;-1.65;100.00;100958.72;5204606;28;20033;-72
2023/12/04 01:48:08;;;;;;;25.38;10.50;;;;;;;-1.62;100.00;100943.41;5204453;28;20029;-72
2023/12/04 01:50:39;;;;;;;25.42;10.27;;;;;;;-1.80;100.00;100945.63;5204126;28;20032;-72
2023/12/04 01:53:10;;;;;;;20.90;9.30;;;;;;;-1.83;100.00;100938.75;5204498;28;20431;-72
2023/12/04 01:55:41;;;;;;;24.10;9.75;;;;;;;-1.86;100.00;100944.66;5199598;28;20151;-73
2023/12/04 01:58:12;;;;;;;22.58;9.43;;;;;;;-1.62;100.00;100945.97;5203803;28;20478;-72
2023/12/04 02:00:42;;;;;;;24.30;9.75;;;;;;;-1.48;100.00;100941.97;5193999;28;20031;-72
2023/12/04 02:03:13;;;;;;;24.17;9.52;;;;;;;-1.43;100.00;100936.09;5205204;28;20029;-72
2023/12/04 02:05:44;;;;;;;21.55;9.35;;;;;;;-1.40;100.00;100941.25;5209524;28;20402;-72
2023/12/04 02:08:15;;;;;;;20.92;9.55;;;;;;;-1.45;100.00;100934.31;5207965;28;20037;-72
2023/12/04 02:10:45;;;;;;;21.88;9.57;;;;;;;-1.46;100.00;100936.03;5210007;28;20035;-72
2023/12/04 02:13:16;;;;;;;25.77;10.00;;;;;;;-1.45;100.00;100940.31;5209231;28;20403;-73
2023/12/04 02:15:49;;;;;;;23.35;9.55;;;;;;;-1.32;100.00;100931.16;5210411;28;20120;-72
2023/12/04 02:18:22;;;;;;;21.65;9.35;;;;;;;-1.32;100.00;100926.91;5209299;28;20127;-73
2023/12/04 02:20:53;;;;;;;24.80;9.48;;;;;;;-1.16;100.00;100928.00;5208444;28;20035;-73
2023/12/04 02:23:23;;;;;;;21.23;9.48;;;;;;;-1.13;100.00;100928.06;5209299;28;20021;-72
2023/12/04 02:26:00;;;;;;;19.80;9.20;;;;;;;-1.14;100.00;100913.50;5208689;28;20021;-73
2023/12/04 02:28:34;;;;;;;21.40;9.50;;;;;;;-1.16;100.00;100912.63;5208353;28;20033;-72
2023/12/04 02:31:05;;;;;;;17.98;8.20;;;;;;;-1.06;100.00;100904.25;5208870;28;20068;-73
2023/12/04 02:33:37;;;;;;;21.58;10.27;;;;;;;-1.10;100.00;100912.75;5203056;28;20035;-72
2023/12/04 02:36:10;;;;;;;24.02;9.57;;;;;;;-1.19;100.00;100912.59;5211266;28;20071;-72
2023/12/04 02:38:41;;;;;;;20.52;9.20;;;;;;;-1.21;100.00;100899.72;5210892;28;20033;-70
2023/12/04 02:41:11;;;;;;;23.88;9.95;;;;;;;-1.26;100.00;100895.38;5208047;28;20111;-72
2023/12/04 02:43:42;;;;;;;23.48;10.05;;;;;;;-1.16;100.00;100893.00;5207746;28;20056;-71
2023/12/04 02:46:12;;;;;;;19.90;9.13;;;;;;;-1.33;100.00;100888.41;5208812;28;20087;-72
2023/12/04 02:48:42;;;;;;;21.70;9.15;;;;;;;-1.21;100.00;100898.88;5206849;28;20052;-71
2023/12/04 02:51:13;;;;;;;21.95;9.68;;;;;;;-1.22;100.00;100881.78;5207595;28;20031;-72
2023/12/04 02:53:43;;;;;;;23.13;9.45;;;;;;;-1.12;100.00;100878.50;5206900;28;20378;-72
2023/12/04 02:56:13;;;;;;;22.70;9.57;;;;;;;-1.34;100.00;100887.56;5206365;28;20025;-73
2023/12/04 02:58:43;;;;;;;21.48;9.57;;;;;;;-1.19;100.00;100877.56;5209416;28;20057;-72
2023/12/04 03:01:14;;;;;;;18.42;8.32;;;;;;;-1.21;100.00;100870.69;5208717;28;20031;-72
2023/12/04 03:03:44;;;;;;;19.25;8.85;;;;;;;-1.28;100.00;100871.41;5197821;28;20040;-72
2023/12/04 03:06:16;;;;;;;22.27;9.63;;;;;;;-1.23;100.00;100859.56;5210813;28;20032;-72
2023/12/04 03:08:46;;;;;;;22.65;9.15;;;;;;;-1.05;100.00;100858.13;5209168;28;20028;-71
2023/12/04 03:11:16;;;;;;;23.92;9.07;;;;;;;-0.97;100.00;100847.97;5202692;28;20297;-72
2023/12/04 03:13:46;;;;;;;23.30;9.77;;;;;;;-0.93;100.00;100850.63;5206485;28;20044;-72
2023/12/04 03:16:18;;;;;;;21.95;8.63;;;;;;;-0.91;100.00;100850.66;5209013;28;20025;-72
2023/12/04 03:18:48;;;;;;;20.45;9.23;;;;;;;-0.91;100.00;100845.53;5211478;28;20394;-72
2023/12/04 03:21:18;;;;;;;20.88;8.90;;;;;;;-0.88;100.00;100845.56;5209414;28;20025;-72
2023/12/04 03:23:49;;;;;;;18.38;7.85;;;;;;;-0.92;100.00;100841.22;5208539;28;20426;-71
2023/12/04 03:26:19;;;;;;;18.88;8.38;;;;;;;-0.98;100.00;100838.56;5209072;28;20029;-72
2023/12/04 03:28:49;;;;;;;19.25;8.63;;;;;;;-0.86;100.00;100828.47;5206346;28;20035;-72
2023/12/04 03:31:20;;;;;;;22.38;8.02;;;;;;;-0.85;100.00;100822.50;5210380;28;20033;-73
2023/12/04 03:33:51;;;;;;;19.73;8.15;;;;;;;-0.70;100.00;100828.69;5204542;28;20117;-72
2023/12/04 03:36:21;;;;;;;15.50;7.20;;;;;;;-0.84;100.00;100819.09;5205163;28;20026;-72
2023/12/04 03:38:51;;;;;;;17.85;7.10;;;;;;;-0.68;100.00;100819.34;5206081;28;20052;-72
2023/12/04 03:41:23;;;;;;;14.30;6.43;;;;;;;-0.60;100.00;100825.41;5204978;28;20086;-72
2023/12/04 03:43:53;;;;;;;15.45;6.45;;;;;;;-0.62;100.00;100813.41;5204133;28;20028;-73
2023/12/04 03:46:23;;;;;;;18.02;6.45;;;;;;;-0.44;100.00;100818.75;5208556;28;20021;-73
2023/12/04 03:48:55;;;;;;;16.65;6.63;;;;;;;-0.47;100.00;100816.16;5202350;28;20056;-72
2023/12/04 03:51:25;;;;;;;14.82;6.60;;;;;;;-0.40;99.90;100817.97;5205193;28;20115;-71
2023/12/04 03:53:55;;;;;;;13.82;6.55;;;;;;;-0.40;100.00;100812.84;5204882;28;20119;-72
2023/12/04 03:56:26;;;;;;;15.85;6.90;;;;;;;-0.35;100.00;100813.75;5200297;28;20133;-73
2023/12/04 03:58:56;;;;;;;14.35;6.40;;;;;;;-0.37;100.00;100818.84;5206420;28;20796;-72
2023/12/04 04:01:26;;;;;;;17.45;6.47;;;;;;;-0.50;100.00;100811.00;5203873;28;20444;-72
2023/12/04 04:03:57;;;;;;;16.92;7.13;;;;;;;-0.35;100.00;100808.63;5203377;28;20042;-71
2023/12/04 04:06:27;;;;;;;15.02;6.82;;;;;;;-0.33;100.00;100810.38;5207429;28;20053;-71
2023/12/04 04:08:57;;;;;;;16.10;6.82;;;;;;;-0.30;99.64;100799.25;5204337;28;20067;-71
2023/12/04 04:11:27;;;;;;;14.68;6.95;;;;;;;-0.33;99.19;100788.97;5200992;28;20088;-72
2023/12/04 04:13:58;;;;;;;13.60;6.63;;;;;;;-0.25;97.82;100777.09;5206489;28;20031;-71
2023/12/04 04:16:28;;;;;;;16.55;6.78;;;;;;;-0.25;97.05;100771.94;5207519;28;20040;-71
2023/12/04 04:18:58;;;;;;;15.63;6.90;;;;;;;-0.17;96.83;100772.88;5206108;28;20037;-71
2023/12/04 04:21:29;;;;;;;14.98;6.47;;;;;;;-0.16;96.63;100772.03;5206918;28;20032;-72
2023/12/04 04:23:59;;;;;;;13.82;6.43;;;;;;;-0.15;95.74;100764.34;5206521;28;20053;-73
2023/12/04 04:26:29;;;;;;;14.80;6.65;;;;;;;-0.11;96.38;100760.97;5205351;28;20029;-72
2023/12/04 04:29:00;;;;;;;15.18;7.05;;;;;;;-0.10;95.71;100754.09;5206009;28;20045;-72
2023/12/04 04:31:30;;;;;;;14.88;6.40;;;;;;;-0.03;96.09;100744.78;5206998;28;20025;-72
2023/12/04 04:34:01;;;;;;;12.82;6.07;;;;;;;-0.06;95.29;100743.03;5204986;28;20272;-72
2023/12/04 04:36:31;;;;;;;14.57;6.20;;;;;;;0.04;95.22;100740.56;5208473;28;20025;-71
2023/12/04 04:39:02;;;;;;;16.23;6.30;;;;;;;0.01;94.25;100731.13;5208091;28;20083;-72
2023/12/04 04:41:32;;;;;;;13.88;6.43;;;;;;;0.02;94.78;100721.72;5205442;28;20538;-71
2023/12/04 04:44:03;;;;;;;14.43;6.32;;;;;;;0.00;94.53;100721.69;5206797;28;20109;-71
2023/12/04 04:46:33;;;;;;;14.98;6.38;;;;;;;0.04;94.00;100720.88;5206056;28;20525;-72
2023/12/04 04:49:06;;;;;;;14.43;6.38;;;;;;;0.02;93.96;100716.59;5201944;28;20036;-73
2023/12/04 04:51:36;;;;;;;12.85;6.00;;;;;;;0.05;93.11;100709.75;5206690;28;20030;-71
2023/12/04 04:54:07;;;;;;;14.98;6.35;;;;;;;0.06;93.17;100703.75;5206733;28;20188;-71
2023/12/04 04:56:37;;;;;;;13.18;5.97;;;;;;;0.00;92.23;100688.31;5205530;28;20074;-74
2023/12/04 04:59:07;;;;;;;11.98;5.88;;;;;;;0.10;91.94;100692.69;5205674;28;20047;-72
2023/12/04 05:01:38;;;;;;;12.77;5.75;;;;;;;0.07;91.16;100684.09;5206739;28;20437;-71
2023/12/04 05:04:08;;;;;;;13.02;5.45;;;;;;;0.14;90.68;100696.09;5208319;28;20095;-72
2023/12/04 05:06:38;;;;;;;11.95;5.10;;;;;;;0.17;89.59;100686.72;5207365;28;20028;-70
2023/12/04 05:09:09;;;;;;;10.98;4.82;;;;;;;0.23;89.61;100684.19;5206703;28;20373;-72
2023/12/04 05:11:39;;;;;;;12.38;5.43;;;;;;;0.20;89.82;100663.63;5206532;28;20027;-71
2023/12/04 05:14:09;;;;;;;13.52;5.40;;;;;;;0.37;89.84;100668.91;5206672;28;20080;-72
2023/12/04 05:16:39;;;;;;;13.95;5.65;;;;;;;0.35;90.16;100665.47;5206356;28;20111;-72
2023/12/04 05:19:10;;;;;;;10.38;4.78;;;;;;;0.30;89.83;100668.00;5206425;28;20029;-73
2023/12/04 05:21:40;;;;;;;12.70;5.32;;;;;;;0.39;89.53;100662.88;5206346;28;20045;-71
2023/12/04 05:24:10;;;;;;;11.63;5.30;;;;;;;0.39;88.83;100652.59;5208156;28;20025;-71
2023/12/04 05:26:41;;;;;;;13.43;5.20;;;;;;;0.31;88.62;100663.69;5207097;28;20429;-71
2023/12/04 05:29:11;;;;;;;13.50;4.55;;;;;;;0.29;89.00;100658.56;5202951;28;20426;-72
2023/12/04 05:31:41;;;;;;;11.23;5.05;;;;;;;0.32;89.92;100656.00;5209949;28;20048;-71
2023/12/04 05:34:12;;;;;;;10.95;4.85;;;;;;;0.29;90.23;100649.97;5207433;28;20075;-71
2023/12/04 05:36:42;;;;;;;12.30;5.63;;;;;;;0.37;89.56;100654.31;5206858;28;20021;-72
2023/12/04 05:39:13;;;;;;;11.57;4.93;;;;;;;0.29;89.63;100661.13;5208802;28;20474;-71
2023/12/04 05:41:43;;;;;;;11.52;5.38;;;;;;;0.28;89.75;100656.84;5210782;28;20090;-72
2023/12/04 05:44:13;;;;;;;10.88;5.30;;;;;;;0.29;89.56;100650.84;5210697;28;20067;-72
2023/12/04 05:46:44;;;;;;;11.68;5.22;;;;;;;0.31;89.53;100654.28;5211209;28;20064;-73
2023/12/04 05:49:14;;;;;;;10.82;4.90;;;;;;;0.38;89.95;100656.03;5205504;28;20482;-70
2023/12/04 05:51:44;;;;;;;11.27;5.35;;;;;;;0.35;90.41;100650.88;5213099;28;20025;-72
2023/12/04 05:54:14;;;;;;;11.52;5.10;;;;;;;0.28;91.24;100645.69;5212527;28;20063;-72
2023/12/04 05:56:45;;;;;;;11.48;5.07;;;;;;;0.33;91.50;100637.16;5212291;28;20025;-72
2023/12/04 05:59:15;;;;;;;14.10;5.60;;;;;;;0.19;90.86;100645.66;5212264;28;20124;-72
2023/12/04 06:01:45;;;;;;;11.85;5.55;;;;;;;0.12;90.97;100634.47;5207570;28;20029;-71
2023/12/04 06:04:16;;;;;;;14.23;5.15;;;;;;;0.03;90.45;100636.94;5210294;28;20506;-72
2023/12/04 06:06:46;;;;;;;14.02;5.57;;;;;;;0.18;89.84;100621.66;5209857;28;20017;-71
2023/12/04 06:09:16;;;;;;;12.60;5.65;;;;;;;0.28;89.08;100628.56;5212782;28;20086;-72
2023/12/04 06:11:46;;;;;;;10.88;4.80;;;;;;;0.22;89.18;100627.69;5211310;28;20025;-72
2023/12/04 06:14:17;;;;;;;11.65;4.63;;;;;;;0.14;89.48;100625.06;5208407;28;20955;-72
2023/12/04 06:16:47;;;;;;;10.55;4.72;;;;;;;0.20;90.83;100627.66;5211080;28;20056;-72
2023/12/04 06:19:17;;;;;;;13.02;5.65;;;;;;;0.25;90.41;100622.56;5209775;28;20033;-72
2023/12/04 06:21:48;;;;;;;11.90;5.35;;;;;;;0.26;89.44;100627.72;5210603;28;20092;-72
2023/12/04 06:24:19;;;;;;;9.93;4.90;;;;;;;0.20;90.68;100619.94;5205309;28;20064;-72
2023/12/04 06:26:50;;;;;;;11.52;5.50;;;;;;;0.20;89.00;100614.81;5211117;28;20029;-72
2023/12/04 06:29:21;;;;;;;11.68;5.45;;;;;;;0.21;90.33;100610.53;5209964;28;20021;-72
2023/12/04 06:31:52;;;;;;;10.30;4.80;;;;;;;0.30;89.71;100616.59;5210076;28;20519;-72
2023/12/04 06:34:22;;;;;;;11.13;5.10;;;;;;;0.39;89.83;100621.78;5208420;28;20737;-72
2023/12/04 06:36:54;;;;;;;10.63;4.38;;;;;;;0.36;89.02;100623.50;5211947;28;20020;-72
2023/12/04 06:39:27;;;;;;;11.45;4.75;;;;;;;0.27;89.70;100619.16;5208695;28;20028;-72
2023/12/04 06:41:59;;;;;;;13.85;5.75;;;;;;;0.37;90.29;100613.19;5203458;28;20038;-72
2023/12/04 06:44:29;;;;;;;12.68;5.20;;;;;;;0.33;91.51;100613.16;5202339;28;20445;-72
2023/12/04 06:47:01;;;;;;;9.75;4.75;;;;;;;0.27;91.37;100621.72;5213866;28;20116;-72
2023/12/04 06:49:32;;;;;;;11.65;5.53;;;;;;;0.20;92.02;100622.50;5208733;28;20099;-72
2023/12/04 06:52:03;;;;;;;10.85;4.88;;;;;;;0.33;92.18;100621.75;5210358;23;20046;-76
2023/12/04 06:54:34;;;;;;;10.88;4.78;;;;;;;0.32;91.30;100617.47;5187135;28;20045;-76
2023/12/04 06:57:04;;;;;;;11.30;5.15;;;;;;;0.32;92.46;100612.31;5189125;28;20498;-73
2023/12/04 06:59:34;;;;;;;11.60;5.00;;;;;;;0.28;92.33;100610.59;5188584;28;20040;-76
2023/12/04 07:02:05;;;;;;;10.98;4.88;;;;;;;0.28;92.22;100613.16;5191196;28;20033;-72
2023/12/04 07:04:36;;;;;;;11.48;5.07;;;;;;;0.39;91.12;100606.34;5189401;28;20026;-75
2023/12/04 07:07:07;;;;;;;12.50;5.53;;;;;;;0.26;91.10;100604.59;5189835;28;20029;-73
2023/12/04 07:09:37;;;;;;;11.10;4.85;;;;;;;0.33;90.63;100608.91;5188133;28;20080;-76
2023/12/04 07:12:07;;;;;;;13.88;5.55;;;;;;;0.23;90.57;100611.41;5188699;28;20128;-75
2023/12/04 07:14:38;;;;;;;12.13;5.35;;;;;;;0.31;90.61;100612.31;5188313;28;20551;-74
2023/12/04 07:17:09;;;;;;;14.07;5.45;;;;;;;0.31;90.54;100609.72;5189655;28;20033;-74
2023/12/04 07:19:41;;;;;;;11.38;5.43;;;;;;;0.39;91.26;100601.22;5188684;28;20069;-76
2023/12/04 07:22:11;;;;;;;14.23;6.05;;;;;;;0.42;90.68;100606.38;5188565;28;20072;-75
2023/12/04 07:24:42;;;;;;;13.43;5.97;;;;;;;0.25;91.51;100602.00;5188141;28;20227;-75
2023/12/04 07:27:12;;;;;;;10.80;5.13;;;;;;;0.26;90.45;100614.00;5190887;28;20024;-73
2023/12/04 07:29:42;;;;;;;12.85;5.95;;;;;;;0.23;92.27;100609.69;5187637;28;20189;-75
2023/12/04 07:32:13;;;;;;;11.07;5.40;;;;;;;0.33;91.06;100614.03;5189832;28;20025;-75
2023/12/04 07:34:43;;;;;;;13.88;5.50;;;;;;;0.29;91.02;100620.03;5189459;28;20037;-74
2023/12/04 07:37:14;;;;;;;12.75;5.50;;;;;;;0.36;91.39;100624.34;5188376;28;20025;-75
2023/12/04 07:39:46;;;;;;;12.27;5.65;;;;;;;0.34;90.53;100625.16;5191314;28;20032;-74
2023/12/04 07:42:16;;;;;;;10.60;5.28;;;;;;;0.28;91.21;100623.44;5187371;28;20021;-76
2023/12/04 07:44:47;;;;;;;13.25;5.70;;;;;;;0.34;91.17;100632.88;5172955;28;20494;-75
2023/12/04 07:47:17;;;;;;;13.68;5.25;;;;;;;0.35;92.59;100629.47;5190691;28;20029;-76
2023/12/04 07:49:47;;;;;;;11.43;5.43;;;;;;;0.33;93.37;100632.03;5191066;28;20037;-76
2023/12/04 07:52:18;;;;;;;12.90;5.63;;;;;;;0.29;93.26;100632.88;5189238;28;20411;-76
2023/12/04 07:54:49;;;;;;;14.88;6.18;;;;;;;0.34;93.12;100633.75;5190030;28;20029;-76
2023/12/04 07:57:19;;;;;;;12.85;5.90;;;;;;;0.41;93.51;100629.50;5190273;28;20040;-76
2023/12/04 07:59:49;;;;;;;14.38;6.13;;;;;;;0.31;93.96;100628.59;5187927;28;20056;-76
2023/12/04 08:02:20;;;;;;;11.88;5.47;;;;;;;0.30;92.89;100629.44;5170248;28;20013;-76
2023/12/04 08:04:50;;;;;;;12.57;5.78;;;;;;;0.27;92.14;100626.88;5188529;28;20048;-76
2023/12/04 08:07:20;;;;;;;12.75;5.45;;;;;;;0.27;93.25;100626.00;5188041;28;20033;-75
2023/12/04 08:09:50;;;;;;;16.08;5.95;;;;;;;0.29;93.34;100626.84;5189581;28;20478;-76
2023/12/04 08:12:21;;;;;;;12.75;5.65;;;;;;;0.38;93.45;100624.34;5186444;28;20116;-74
2023/12/04 08:14:51;;;;;;;12.55;5.93;;;;;;;0.44;93.55;100619.22;5187731;28;20480;-76
2023/12/04 08:17:21;;;;;;;13.52;6.35;;;;;;;0.44;93.26;100620.13;5171576;28;20033;-76
2023/12/04 08:19:52;;;;;;;12.57;5.88;;;;;;;0.39;94.18;100608.91;5189897;28;20029;-75
2023/12/04 08:22:22;;;;;;;14.70;6.40;;;;;;;0.45;92.95;100621.81;5188596;28;20471;-74
2023/12/04 08:24:53;;;;;;;13.25;5.97;;;;;;;0.60;92.90;100621.91;5191818;28;20060;-75
2023/12/04 08:27:24;;;;;;;12.40;5.80;;;;;;;0.52;93.15;100615.84;5188645;28;20033;-76
2023/12/04 08:29:54;;;;;;;11.00;5.63;;;;;;;0.51;92.44;100610.69;5171298;28;20033;-75
2023/12/04 08:32:26;;;;;;;10.90;5.70;;;;;;;0.69;91.94;100611.66;5187128;28;20022;-73
2023/12/04 08:34:56;;;;;;;13.65;5.97;;;;;;;0.58;91.77;100603.03;5187551;28;20030;-76
2023/12/04 08:37:26;;;;;;;13.05;6.25;;;;;;;0.61;93.75;100600.50;5169291;28;20025;-75
2023/12/04 08:39:57;;;;;;;15.13;6.45;;;;;;;0.55;92.92;100608.16;5188440;28;20494;-75
2023/12/04 08:42:27;;;;;;;13.75;5.63;;;;;;;0.59;94.18;100607.31;5185193;28;20041;-76
2023/12/04 08:44:57;;;;;;;12.07;5.60;;;;;;;0.66;92.75;100611.66;5188492;28;20038;-75
2023/12/04 08:47:28;;;;;;;13.80;6.68;;;;;;;0.63;93.16;100611.63;5188040;28;20037;-76
2023/12/04 08:49:59;;;;;;;14.32;6.43;;;;;;;0.61;92.50;100608.19;5171235;28;20034;-76
2023/12/04 08:52:30;;;;;;;12.48;5.90;;;;;;;0.69;92.91;100603.94;5167520;28;20072;-75
2023/12/04 08:55:01;;;;;;;13.13;6.05;;;;;;;0.73;93.21;100603.09;5187916;28;20037;-75
2023/12/04 08:57:31;;;;;;;13.48;5.97;;;;;;;0.66;92.42;100606.50;5186518;28;20087;-76
2023/12/04 09:00:03;;;;;;;14.57;6.25;;;;;;;0.86;92.92;100604.03;5186211;28;20069;-76
2023/12/04 09:02:33;;;;;;;11.27;5.38;;;;;;;0.80;92.67;100604.84;5186076;28;20468;-76
2023/12/04 09:05:04;;;;;;;12.38;5.72;;;;;;;0.82;93.03;100608.28;5187854;28;20484;-76
2023/12/04 09:07:36;;;;;;;12.02;5.45;;;;;;;0.85;92.91;100608.28;5184546;28;20037;-74
2023/12/04 09:10:06;;;;;;;14.27;6.50;;;;;;;0.81;92.30;100601.44;5187402;28;20053;-76
2023/12/04 09:12:37;;;;;;;12.65;6.28;;;;;;;0.84;91.11;100595.41;5187542;28;20099;-74
2023/12/04 09:15:08;;;;;;;13.45;5.97;;;;;;;0.87;91.62;100592.88;5186671;28;20117;-73
2023/12/04 09:17:39;;;;;;;15.30;5.68;;;;;;;0.76;88.66;100595.38;5188403;28;20026;-75
2023/12/04 09:20:09;;;;;;;11.30;5.68;;;;;;;0.87;87.98;100585.16;5187562;28;20080;-76
2023/12/04 09:22:40;;;;;;;12.43;5.55;;;;;;;0.83;87.48;100574.00;5187070;28;20073;-75
2023/12/04 09:25:10;;;;;;;10.80;5.30;;;;;;;0.94;87.13;100572.31;5188787;28;20025;-75
2023/12/04 09:27:41;;;;;;;10.57;5.05;;;;;;;1.06;87.12;100572.34;5187359;28;20506;-75
2023/12/04 09:30:12;;;;;;;10.60;5.18;;;;;;;1.09;87.75;100569.75;5184239;28;20021;-74
2023/12/04 09:32:42;;;;;;;9.75;4.80;;;;;;;1.13;88.69;100578.34;5182109;28;20028;-75
2023/12/04 09:35:12;;;;;;;10.00;4.55;;;;;;;1.21;88.79;100576.69;5185223;28;20080;-76
2023/12/04 09:37:43;;;;;;;9.43;4.68;;;;;;;1.29;89.12;100568.09;5186584;28;20025;-76
2023/12/04 09:40:13;;;;;;;8.80;4.40;;;;;;;1.40;88.00;100574.09;5188489;28;20029;-75
2023/12/04 09:42:43;;;;;;;14.90;6.97;;;;;;;1.33;90.18;100566.38;5184893;28;20172;-75
2023/12/04 09:45:15;;;;;;;10.82;5.30;;;;;;;1.51;90.87;100559.53;5187084;28;20482;-75
2023/12/04 09:47:47;;;;;;;11.10;4.82;;;;;;;1.61;91.24;100563.81;5184755;28;20025;-75
2023/12/04 09:50:20;;;;;;;13.05;5.10;;;;;;;1.61;90.49;100563.81;5186855;28;20026;-76
2023/12/04 09:52:52;;;;;;;9.57;4.55;;;;;;;1.69;91.94;100546.66;5188165;28;20594;-76
2023/12/04 09:55:23;;;;;;;9.82;4.90;;;;;;;1.65;89.19;100544.94;5188580;28;20030;-75
2023/12/04 09:57:54;;;;;;;8.85;4.22;;;;;;;1.88;88.68;100549.22;5169553;28;20033;-75
2023/12/04 10:00:25;;;;;;;8.25;4.30;;;;;;;1.97;88.51;100538.88;5185163;28;20403;-73
2023/12/04 10:02:56;;;;;;;9.60;4.13;;;;;;;1.86;87.96;100534.63;5187691;28;20037;-75
2023/12/04 10:05:26;;;;;;;8.75;4.35;;;;;;;1.94;88.07;100528.59;5186447;28;20372;-76
2023/12/04 10:07:56;;;;;;;8.02;4.40;;;;;;;2.10;87.35;100525.13;5190482;28;20537;-74
2023/12/04 10:10:27;;;;;;;10.90;4.18;;;;;;;2.28;88.18;100522.50;5187247;28;20388;-75
2023/12/04 10:12:58;;;;;;;8.65;4.63;;;;;;;2.30;87.21;100509.59;5189462;28;20041;-75
2023/12/04 10:15:28;;;;;;;9.50;4.50;;;;;;;2.22;86.01;100506.19;5185975;28;20427;-76
2023/12/04 10:17:59;;;;;;;8.88;4.63;;;;;;;2.25;85.55;100508.75;5188880;28;20046;-74
2023/12/04 10:20:29;;;;;;;9.07;4.40;;;;;;;2.08;86.96;100502.78;5187356;28;20522;-76
2023/12/04 10:23:01;;;;;;;8.05;4.50;;;;;;;1.95;85.01;100503.66;5189746;28;20121;-75
2023/12/04 10:25:32;;;;;;;9.07;4.50;;;;;;;1.95;85.49;100499.38;5187094;28;20383;-75
2023/12/04 10:28:12;;;;;;;9.93;4.47;;;;;;;1.79;86.48;100502.84;5193304;28;20064;-74
2023/12/04 10:30:43;;;;;;;10.88;4.65;;;;;;;1.86;87.00;100498.56;5184757;28;20313;-75
2023/12/04 10:33:14;;;;;;;9.18;4.65;;;;;;;1.90;86.53;100495.97;5188171;28;20105;-75
2023/12/04 10:35:46;;;;;;;8.10;4.18;;;;;;;1.98;86.63;100490.81;5172259;28;20128;-75
2023/12/04 10:38:18;;;;;;;10.85;4.93;;;;;;;1.97;86.10;100487.34;5188348;28;20384;-75
2023/12/04 10:40:48;;;;;;;8.70;4.20;;;;;;;2.12;86.56;100476.13;5186853;28;20222;-75
2023/12/04 10:43:21;;;;;;;9.68;4.40;;;;;;;2.08;86.85;100479.59;5191071;28;20021;-75
2023/12/04 10:45:52;;;;;;;8.38;4.15;;;;;;;2.01;86.34;100476.16;5189246;28;20033;-75
2023/12/04 10:48:23;;;;;;;9.65;4.47;;;;;;;2.17;85.24;100479.56;5192860;28;20108;-76
2023/12/04 10:50:53;;;;;;;10.57;4.50;;;;;;;2.17;84.94;100472.69;5186743;28;20117;-75
2023/12/04 10:53:24;;;;;;;8.48;3.80;;;;;;;2.11;81.91;100461.53;5185205;28;20033;-74
2023/12/04 10:55:57;;;;;;;10.77;4.20;;;;;;;2.00;82.28;100465.88;5186891;28;20113;-75
2023/12/04 10:58:29;;;;;;;9.57;4.30;;;;;;;1.93;81.34;100479.63;5188905;28;20121;-73
2023/12/04 11:01:01;;;;;;;7.97;3.72;;;;;;;2.03;81.49;100463.28;5186791;28;20362;-75
2023/12/04 11:03:37;;;;;;;8.40;4.50;;;;;;;1.97;81.30;100471.91;5187501;28;20014;-75
2023/12/04 11:06:10;;;;;;;11.07;4.50;;;;;;;1.89;82.04;100460.78;5171176;28;20030;-75
2023/12/04 11:08:42;;;;;;;10.20;4.68;;;;;;;1.91;82.54;100465.91;5186683;28;20503;-75
2023/12/04 11:11:18;;;;;;;9.32;4.60;;;;;;;1.93;82.05;100453.88;5189413;28;20022;-75
2023/12/04 11:13:56;;;;;;;10.38;4.68;;;;;;;1.84;82.38;100457.31;5170528;28;20107;-75
2023/12/04 11:16:46;;;;;;;9.52;4.13;;;;;;;1.75;81.61;100450.50;5189240;28;20523;-76
2023/12/04 11:19:39;;;;;;;8.90;4.22;;;;;;;1.89;81.54;100452.16;5188091;28;20079;-76
2023/12/04 11:22:11;;;;;;;9.80;4.15;;;;;;;1.78;81.42;100443.59;5188020;28;20025;-73
2023/12/04 11:24:42;;;;;;;8.95;4.45;;;;;;;1.81;80.97;100444.47;5189988;28;20391;-76
2023/12/04 11:27:13;;;;;;;8.80;4.63;;;;;;;1.84;82.46;100439.28;5191433;28;20025;-76
2023/12/04 11:29:46;;;;;;;9.38;4.38;;;;;;;1.77;81.60;100441.88;5183832;28;20033;-75
2023/12/04 11:32:17;;;;;;;11.15;4.90;;;;;;;1.81;82.19;100428.16;5182681;28;20022;-75
2023/12/04 11:34:54;;;;;;;11.63;4.80;;;;;;;1.80;81.38;100426.47;5185153;28;20087;-76